Time;durP1;ratioP1;P1;durP2;ratioP2;P2;SDS_P1;SDS_P2;PMS_P1;PMS_P2;Temp;Humidity;BMP_temperature;BMP_pressure;BME280_temperature;BME280_humidity;BME280_pressure;Samples;Min_cycle;Max_cycle;Signal;HPM_P1;HPM_P2
2022/07/13 00:01:15;;;;;;;1.00;1.00;;;15.70;99.90;;;;;;4984073;28;20697;-74
2022/07/13 00:03:40;;;;;;;1.37;1.20;;;15.70;99.90;;;;;;4993242;28;20691;-74
2022/07/13 00:06:07;;;;;;;2.40;1.23;;;15.60;99.90;;;;;;4992466;28;20197;-74
2022/07/13 00:08:33;;;;;;;1.83;1.03;;;15.60;99.90;;;;;;4990723;28;20183;-73
2022/07/13 00:10:58;;;;;;;1.97;1.07;;;15.60;99.90;;;;;;4985640;28;20908;-74
2022/07/13 00:13:24;;;;;;;2.93;0.90;;;15.50;99.90;;;;;;4991095;28;20477;-74
2022/07/13 00:15:49;;;;;;;0.90;0.90;;;15.50;99.90;;;;;;4992199;28;20185;-73
2022/07/13 00:18:15;;;;;;;3.90;1.40;;;15.40;99.90;;;;;;4991467;28;20187;-74
2022/07/13 00:20:41;;;;;;;1.53;1.43;;;15.40;99.90;;;;;;4991802;28;20179;-73
2022/07/13 00:23:06;;;;;;;1.00;1.00;;;15.40;99.90;;;;;;4991078;28;20187;-75
2022/07/13 00:25:32;;;;;;;1.37;1.13;;;15.40;99.90;;;;;;4992121;28;20569;-74
2022/07/13 00:27:57;;;;;;;1.40;1.30;;;15.40;99.90;;;;;;4991331;28;20274;-74
2022/07/13 00:30:23;;;;;;;1.60;0.93;;;15.30;99.90;;;;;;4991861;28;20198;-70
2022/07/13 00:32:49;;;;;;;1.10;1.10;;;15.30;99.90;;;;;;4991194;28;20577;-71
2022/07/13 00:35:14;;;;;;;1.67;1.20;;;15.30;99.90;;;;;;4988118;28;20191;-74
2022/07/13 00:37:40;;;;;;;2.40;1.23;;;15.30;99.90;;;;;;4972847;28;20175;-73
2022/07/13 00:40:06;;;;;;;1.00;1.00;;;15.30;99.90;;;;;;4976202;28;20184;-74
2022/07/13 00:42:32;;;;;;;1.00;1.00;;;15.20;99.90;;;;;;4971745;28;20204;-74
2022/07/13 00:44:57;;;;;;;1.20;1.20;;;15.20;99.90;;;;;;4990929;28;20442;-73
2022/07/13 00:47:23;;;;;;;3.23;1.30;;;15.20;99.90;;;;;;4992285;28;20536;-73
2022/07/13 00:49:49;;;;;;;2.23;1.23;;;15.20;99.90;;;;;;4990143;28;20281;-71
2022/07/13 00:52:15;;;;;;;1.87;1.10;;;15.10;99.90;;;;;;4991313;28;20545;-75
2022/07/13 00:54:44;;;;;;;2.00;1.30;;;15.10;99.90;;;;;;4991578;28;20246;-74
2022/07/13 00:57:13;;;;;;;4.63;1.17;;;15.10;99.90;;;;;;4990502;28;20855;-72
2022/07/13 00:59:39;;;;;;;1.27;1.07;;;15.00;99.90;;;;;;4989171;28;20438;-74
2022/07/13 02:32:45;;;;;;;1.30;1.30;;;14.90;99.90;;;;;;5123730;23;20506;-77
2022/07/13 02:35:12;;;;;;;3.90;1.40;;;14.90;99.90;;;;;;4968912;28;20438;-76
2022/07/13 02:37:38;;;;;;;1.30;1.20;;;15.00;99.90;;;;;;4971085;28;20426;-76
2022/07/13 02:40:04;;;;;;;2.10;1.00;;;15.00;99.90;;;;;;4967948;28;20498;-76
2022/07/13 02:42:30;;;;;;;1.30;1.20;;;15.10;99.90;;;;;;4954710;28;20964;-74
2022/07/13 02:44:55;;;;;;;1.33;1.20;;;15.10;99.90;;;;;;4945077;28;20459;-74
2022/07/13 02:47:21;;;;;;;1.40;1.30;;;15.20;99.90;;;;;;4951949;28;20184;-74
2022/07/13 02:49:46;;;;;;;1.20;1.10;;;15.20;99.90;;;;;;4950015;28;20267;-76
2022/07/13 02:52:12;;;;;;;2.73;1.47;;;15.20;99.90;;;;;;4952236;28;20224;-74
2022/07/13 02:54:38;;;;;;;1.67;1.57;;;15.20;99.90;;;;;;4953512;28;20185;-75
2022/07/13 02:57:04;;;;;;;2.40;1.40;;;15.20;99.90;;;;;;4952427;28;20191;-76
2022/07/13 02:59:35;;;;;;;1.90;1.23;;;15.20;99.90;;;;;;4952793;28;20243;-74
2022/07/13 03:02:01;;;;;;;1.50;1.40;;;15.20;99.90;;;;;;4944309;28;20547;-75
2022/07/13 03:04:27;;;;;;;1.90;1.80;;;15.20;99.90;;;;;;4953363;28;20503;-75
2022/07/13 03:06:52;;;;;;;1.90;1.40;;;15.30;99.90;;;;;;4953996;28;20267;-76
2022/07/13 03:09:18;;;;;;;3.93;2.10;;;15.30;99.90;;;;;;4957360;28;20188;-75
2022/07/13 03:11:43;;;;;;;2.33;1.50;;;15.30;99.90;;;;;;4954328;28;20272;-77
2022/07/13 03:14:09;;;;;;;2.10;1.50;;;15.30;99.90;;;;;;4940415;28;20736;-74
2022/07/13 03:16:34;;;;;;;1.63;1.33;;;15.20;99.90;;;;;;4938652;29;20240;-76
2022/07/13 03:19:00;;;;;;;1.57;1.47;;;15.20;99.90;;;;;;4955570;29;20238;-75
2022/07/13 03:21:28;;;;;;;4.00;1.10;;;15.10;99.90;;;;;;4955259;28;20750;-77
2022/07/13 03:23:53;;;;;;;1.57;1.47;;;15.10;99.90;;;;;;4954270;28;20440;-77
2022/07/13 03:26:19;;;;;;;2.40;1.37;;;15.10;99.90;;;;;;4954884;28;20420;-77
2022/07/13 03:28:45;;;;;;;1.70;1.40;;;15.00;99.90;;;;;;4951188;29;20248;-77
2022/07/13 03:31:10;;;;;;;1.43;1.33;;;15.00;99.90;;;;;;4954889;28;20228;-76
2022/07/13 03:33:36;;;;;;;2.10;1.77;;;14.90;99.90;;;;;;4951439;28;20524;-77
2022/07/13 03:36:02;;;;;;;1.70;1.60;;;14.90;99.90;;;;;;4955964;28;20271;-77
2022/07/13 03:38:27;;;;;;;3.10;1.20;;;14.80;99.90;;;;;;4949822;28;20349;-77
2022/07/13 03:40:53;;;;;;;1.70;1.60;;;14.80;99.90;;;;;;4936181;29;20202;-77
2022/07/13 03:43:18;;;;;;;1.47;1.37;;;14.90;99.90;;;;;;4937395;29;20250;-77
2022/07/13 03:45:44;;;;;;;1.73;1.60;;;14.90;99.90;;;;;;4936521;29;20186;-77
2022/07/13 03:48:09;;;;;;;1.37;1.27;;;14.80;99.90;;;;;;4949554;29;20187;-75
2022/07/13 03:50:35;;;;;;;2.60;1.17;;;14.80;99.90;;;;;;4938838;28;20259;-75
2022/07/13 03:53:00;;;;;;;1.43;1.33;;;14.70;99.90;;;;;;4942268;28;20209;-77
2022/07/13 03:55:26;;;;;;;2.03;1.20;;;14.70;99.90;;;;;;4951314;29;20192;-76
2022/07/13 03:57:51;;;;;;;1.10;1.10;;;14.70;99.90;;;;;;4955437;28;20252;-76
2022/07/13 04:00:17;;;;;;;2.00;1.53;;;14.70;99.90;;;;;;4953437;28;20180;-75
2022/07/13 04:02:43;;;;;;;1.20;1.10;;;14.60;99.90;;;;;;4955577;28;20259;-76
2022/07/13 04:05:09;;;;;;;1.97;1.70;;;14.60;99.90;;;;;;4952154;28;20441;-74
2022/07/13 04:07:35;;;;;;;5.90;1.90;;;14.60;99.90;;;;;;4950077;28;20728;-76
2022/07/13 04:10:00;;;;;;;3.70;1.87;;;14.60;99.90;;;;;;4953585;28;20424;-74
2022/07/13 04:12:26;;;;;;;2.03;1.60;;;14.60;99.90;;;;;;4950920;28;20212;-76
2022/07/13 04:14:51;;;;;;;3.67;1.30;;;14.60;99.90;;;;;;4949924;28;20219;-75
2022/07/13 04:17:17;;;;;;;2.40;1.70;;;14.50;99.90;;;;;;4951925;28;20276;-77
2022/07/13 04:19:42;;;;;;;1.83;1.60;;;14.60;99.90;;;;;;4950477;28;20185;-76
2022/07/13 04:22:08;;;;;;;1.97;1.70;;;14.60;99.90;;;;;;4950957;28;20244;-76
2022/07/13 04:24:33;;;;;;;2.20;1.63;;;14.60;99.90;;;;;;4953955;28;20692;-76
2022/07/13 04:26:59;;;;;;;1.50;1.40;;;14.60;99.90;;;;;;4953091;28;20235;-76
2022/07/13 04:29:25;;;;;;;2.93;1.60;;;14.60;99.90;;;;;;4947969;28;20689;-76
2022/07/13 04:31:50;;;;;;;2.07;1.97;;;14.60;99.90;;;;;;4946662;28;20228;-76
2022/07/13 04:34:16;;;;;;;4.13;1.80;;;14.70;99.90;;;;;;4951246;28;20232;-76
2022/07/13 04:36:43;;;;;;;1.50;1.40;;;14.70;99.90;;;;;;4951695;28;20185;-77
2022/07/13 04:39:08;;;;;;;1.70;1.60;;;14.70;99.90;;;;;;4941850;28;20500;-76
2022/07/13 04:41:34;;;;;;;1.77;1.60;;;14.80;99.90;;;;;;4945287;28;20542;-73
2022/07/13 04:43:59;;;;;;;3.60;2.10;;;14.80;99.90;;;;;;4952758;28;20184;-73
2022/07/13 04:46:25;;;;;;;2.07;1.97;;;14.90;99.90;;;;;;4953204;28;20188;-74
2022/07/13 04:48:51;;;;;;;1.70;1.60;;;15.00;99.90;;;;;;4953553;28;20263;-71
2022/07/13 04:51:16;;;;;;;2.10;1.90;;;15.10;99.90;;;;;;4953049;28;20240;-74
2022/07/13 04:53:42;;;;;;;4.17;1.90;;;15.30;99.90;;;;;;4953516;28;20207;-74
2022/07/13 04:56:07;;;;;;;4.00;1.80;;;15.40;99.90;;;;;;4953833;28;20255;-73
2022/07/13 04:58:33;;;;;;;2.60;2.40;;;15.50;99.90;;;;;;4952822;28;20184;-72
2022/07/13 05:01:00;;;;;;;2.30;2.20;;;15.70;99.90;;;;;;4951509;28;20665;-74
2022/07/13 05:03:26;;;;;;;1.90;1.73;;;15.90;99.90;;;;;;4953559;28;20588;-74
2022/07/13 05:05:52;;;;;;;3.07;2.77;;;16.00;99.90;;;;;;4953678;28;20511;-73
2022/07/13 05:08:17;;;;;;;2.43;2.23;;;16.20;99.90;;;;;;4953094;28;20507;-74
2022/07/13 05:10:43;;;;;;;3.50;2.70;;;16.50;99.90;;;;;;4952563;28;20190;-74
2022/07/13 05:13:08;;;;;;;2.23;1.80;;;16.90;99.90;;;;;;4953390;28;20208;-74
2022/07/13 05:15:34;;;;;;;1.67;1.57;;;17.50;99.90;;;;;;4953116;28;20649;-75
2022/07/13 05:17:59;;;;;;;4.60;1.97;;;18.10;99.90;;;;;;4953252;28;20461;-77
2022/07/13 05:20:25;;;;;;;15.10;2.30;;;18.60;99.90;;;;;;4951834;28;20243;-77
2022/07/13 05:22:50;;;;;;;2.60;2.20;;;19.20;99.90;;;;;;4952329;28;20685;-75
2022/07/13 05:25:16;;;;;;;2.13;1.43;;;19.90;99.90;;;;;;4946452;28;20280;-76
2022/07/13 05:27:41;;;;;;;4.90;1.47;;;20.50;99.90;;;;;;4951310;28;20176;-77
2022/07/13 05:30:08;;;;;;;1.70;1.60;;;21.20;99.90;;;;;;4951295;28;20185;-77
2022/07/13 05:32:33;;;;;;;4.97;1.83;;;21.80;99.90;;;;;;4945292;28;20221;-77
2022/07/13 05:34:59;;;;;;;5.70;1.37;;;22.30;99.90;;;;;;4949292;28;20837;-76
2022/07/13 05:37:24;;;;;;;2.13;1.77;;;22.70;99.90;;;;;;4952730;28;20517;-77
2022/07/13 05:39:50;;;;;;;2.40;1.40;;;23.10;99.90;;;;;;4952415;28;20184;-77
2022/07/13 05:42:16;;;;;;;1.80;1.30;;;23.40;99.90;;;;;;4951085;28;20200;-78
2022/07/13 05:44:41;;;;;;;1.23;0.80;;;23.50;99.90;;;;;;4952372;28;20190;-77
2022/07/13 05:47:07;;;;;;;3.00;1.53;;;23.40;99.90;;;;;;4952378;28;20604;-78
2022/07/13 05:49:33;;;;;;;3.43;1.13;;;23.30;99.90;;;;;;4951670;28;20184;-75
2022/07/13 05:51:59;;;;;;;2.77;1.20;;;23.10;99.90;;;;;;4951751;28;20641;-77
2022/07/13 05:54:25;;;;;;;3.00;1.40;;;22.70;99.90;;;;;;4952303;28;20457;-77
2022/07/13 05:56:50;;;;;;;3.10;2.83;;;22.30;99.90;;;;;;4951783;28;20665;-77
2022/07/13 05:59:16;;;;;;;3.20;1.53;;;22.00;99.90;;;;;;4952129;28;20191;-77
2022/07/13 06:01:41;;;;;;;7.60;1.33;;;22.00;99.90;;;;;;4951602;28;20204;-77
2022/07/13 06:04:07;;;;;;;3.83;1.30;;;22.10;99.90;;;;;;4952500;28;20594;-77
2022/07/13 06:06:33;;;;;;;3.77;2.20;;;22.20;99.90;;;;;;4952105;28;20173;-75
2022/07/13 06:08:58;;;;;;;2.00;1.40;;;22.20;99.90;;;;;;4951458;28;20220;-77
2022/07/13 06:11:24;;;;;;;2.10;1.87;;;22.10;99.90;;;;;;4949652;28;20927;-78
2022/07/13 06:13:49;;;;;;;11.20;1.83;;;22.00;99.90;;;;;;4952058;28;20715;-77
2022/07/13 06:16:15;;;;;;;6.97;2.33;;;22.00;99.90;;;;;;4951274;28;20184;-76
2022/07/13 06:18:40;;;;;;;2.17;1.80;;;21.90;99.90;;;;;;4952219;28;20455;-77
2022/07/13 06:21:06;;;;;;;3.37;1.70;;;21.90;99.90;;;;;;4951993;28;20244;-78
2022/07/13 06:23:31;;;;;;;3.93;1.80;;;21.90;99.90;;;;;;4951424;28;20192;-76
2022/07/13 06:25:58;;;;;;;2.63;1.50;;;21.90;99.90;;;;;;4952144;28;20243;-78
2022/07/13 06:28:24;;;;;;;2.37;1.20;;;22.10;99.90;;;;;;4951864;28;20208;-77
2022/07/13 06:30:49;;;;;;;1.77;1.40;;;22.10;99.90;;;;;;4950896;28;20974;-77
2022/07/13 06:33:15;;;;;;;2.60;1.10;;;22.20;99.90;;;;;;4951662;28;20303;-78
2022/07/13 06:35:40;;;;;;;3.57;1.60;;;22.30;99.90;;;;;;4951845;28;20177;-78
2022/07/13 06:38:06;;;;;;;4.00;1.43;;;22.40;99.90;;;;;;4951898;28;20263;-78
2022/07/13 06:40:31;;;;;;;2.40;1.17;;;22.50;99.90;;;;;;4950760;28;20208;-76
2022/07/13 06:42:57;;;;;;;2.10;1.33;;;22.60;99.90;;;;;;4954220;28;20228;-78
2022/07/13 06:45:22;;;;;;;3.53;1.10;;;22.80;99.90;;;;;;4955864;28;20204;-77
2022/07/13 06:47:49;;;;;;;11.37;1.60;;;22.90;99.90;;;;;;4955102;28;20279;-78
2022/07/13 06:50:14;;;;;;;2.20;1.70;;;23.30;99.90;;;;;;4955253;28;20695;-78
2022/07/13 06:52:41;;;;;;;6.93;2.07;;;24.00;99.90;;;;;;4954191;28;20471;-78
2022/07/13 06:55:08;;;;;;;9.43;2.07;;;24.60;99.90;;;;;;4955634;28;20243;-78
2022/07/13 06:57:34;;;;;;;5.20;2.50;;;25.10;99.90;;;;;;4955521;28;20463;-78
2022/07/13 06:59:59;;;;;;;3.97;2.03;;;25.10;99.90;;;;;;4956142;28;20420;-78
2022/07/13 07:02:25;;;;;;;6.37;1.60;;;25.30;99.90;;;;;;4955336;28;20956;-78
2022/07/13 07:04:51;;;;;;;3.30;1.97;;;25.30;99.90;;;;;;4956086;28;20721;-78
2022/07/13 07:07:16;;;;;;;3.00;1.60;;;25.50;99.90;;;;;;4955971;28;20177;-79
2022/07/13 07:09:42;;;;;;;2.07;1.30;;;25.90;99.90;;;;;;4955687;28;20956;-78
2022/07/13 07:12:08;;;;;;;2.97;1.60;;;26.10;99.90;;;;;;4955458;28;20586;-79
2022/07/13 07:14:33;;;;;;;4.20;1.63;;;26.50;99.90;;;;;;4956448;28;20234;-77
2022/07/13 07:17:02;;;;;;;3.30;1.40;;;26.80;99.90;;;;;;4956402;28;20173;-78
2022/07/13 07:19:28;;;;;;;2.43;1.33;;;27.00;99.90;;;;;;4955128;28;20173;-78
2022/07/13 07:21:54;;;;;;;2.83;1.60;;;27.00;99.90;;;;;;4953344;28;20439;-78
2022/07/13 07:24:20;;;;;;;5.90;1.63;;;27.30;99.90;;;;;;4954695;28;20557;-78
2022/07/13 07:26:45;;;;;;;2.83;1.40;;;27.50;99.90;;;;;;4953940;29;20416;-76
2022/07/13 07:29:11;;;;;;;5.70;1.33;;;27.90;99.90;;;;;;4953179;28;20646;-75
2022/07/13 07:31:36;;;;;;;5.20;1.80;;;28.10;99.90;;;;;;4953810;28;20212;-78
2022/07/13 07:34:04;;;;;;;2.73;2.30;;;28.10;99.90;;;;;;4954757;28;20215;-78
2022/07/13 07:36:30;;;;;;;6.93;2.03;;;28.30;99.90;;;;;;4954237;28;20957;-78
2022/07/13 07:38:55;;;;;;;5.60;1.90;;;28.40;99.90;;;;;;4953419;28;20644;-77
2022/07/13 07:41:21;;;;;;;1.53;1.40;;;28.60;99.90;;;;;;4953791;28;20215;-76
2022/07/13 07:43:48;;;;;;;4.37;1.40;;;28.90;99.90;;;;;;4954313;28;20276;-77
2022/07/13 07:46:14;;;;;;;4.70;1.23;;;29.10;99.90;;;;;;4954606;28;20475;-77
2022/07/13 07:48:39;;;;;;;2.80;0.97;;;29.70;99.90;;;;;;4954366;28;20468;-77
2022/07/13 07:51:05;;;;;;;7.33;1.30;;;30.20;99.90;;;;;;4953439;28;20208;-77
2022/07/13 07:53:31;;;;;;;1.80;1.07;;;30.70;99.90;;;;;;4953022;28;20279;-74
2022/07/13 07:55:57;;;;;;;1.83;1.10;;;30.60;99.90;;;;;;4954329;28;20188;-78
2022/07/13 07:58:22;;;;;;;3.50;0.77;;;30.50;99.90;;;;;;4954131;28;20184;-77
2022/07/13 08:00:48;;;;;;;2.60;1.40;;;30.30;99.90;;;;;;4953907;28;20180;-78
2022/07/13 08:03:13;;;;;;;2.43;0.97;;;30.20;99.90;;;;;;4953625;28;20187;-78
2022/07/13 08:05:41;;;;;;;2.20;0.80;;;30.20;99.90;;;;;;4953365;28;20705;-77
2022/07/13 08:08:06;;;;;;;1.77;0.70;;;30.00;99.90;;;;;;4954520;28;20276;-78
2022/07/13 08:10:32;;;;;;;2.30;0.97;;;29.90;99.90;;;;;;4953004;28;20515;-74
2022/07/13 08:12:59;;;;;;;2.07;0.77;;;29.90;99.90;;;;;;4952647;28;20231;-79
2022/07/13 08:15:26;;;;;;;0.80;0.50;;;29.90;99.90;;;;;;4954210;28;20184;-77
2022/07/13 08:17:51;;;;;;;3.37;0.90;;;29.80;99.90;;;;;;4954028;28;20423;-74
2022/07/13 08:20:17;;;;;;;0.70;0.70;;;29.70;99.90;;;;;;4953917;28;20424;-77
2022/07/13 08:22:43;;;;;;;3.03;0.70;;;29.50;99.10;;;;;;4951773;28;20604;-77
2022/07/13 08:25:08;;;;;;;2.03;0.70;;;29.00;99.80;;;;;;4954044;28;20549;-77
2022/07/13 08:27:34;;;;;;;1.83;0.97;;;28.90;99.60;;;;;;4953119;28;20271;-77
2022/07/13 08:29:59;;;;;;;2.40;0.63;;;29.00;99.30;;;;;;4953925;28;20181;-77
2022/07/13 08:32:26;;;;;;;0.73;0.50;;;28.90;99.50;;;;;;4952499;28;20216;-78
2022/07/13 08:40:20;;;;;;;1.80;0.90;;;29.60;99.90;;;;;;4953877;29;20944;-77
2022/07/13 08:42:47;;;;;;;0.50;0.50;;;29.80;98.60;;;;;;4952325;28;20475;-78
2022/07/13 08:45:12;;;;;;;0.50;0.50;;;29.80;98.20;;;;;;4953296;28;20905;-77
2022/07/13 08:47:39;;;;;;;0.97;0.60;;;29.60;97.60;;;;;;4952421;28;20522;-77
2022/07/13 08:50:06;;;;;;;1.57;0.60;;;29.70;97.60;;;;;;4953925;28;20177;-78
2022/07/13 08:52:35;;;;;;;1.00;0.70;;;30.00;98.00;;;;;;4952076;28;20849;-77
2022/07/13 08:55:03;;;;;;;0.63;0.60;;;29.90;97.50;;;;;;4953448;28;20440;-77
2022/07/13 08:57:30;;;;;;;2.23;0.70;;;30.10;97.80;;;;;;4953311;28;20420;-77
2022/07/13 08:59:55;;;;;;;1.17;0.50;;;30.30;98.00;;;;;;4953762;28;20739;-78
2022/07/13 09:02:21;;;;;;;0.70;0.70;;;30.70;98.60;;;;;;4951670;28;20467;-78
2022/07/13 09:04:46;;;;;;;1.10;0.70;;;31.00;97.40;;;;;;4953284;28;20184;-78
2022/07/13 09:07:12;;;;;;;1.00;0.70;;;31.00;97.70;;;;;;4953181;28;20185;-76
2022/07/13 09:09:38;;;;;;;0.80;0.80;;;31.30;96.60;;;;;;4952603;28;20176;-75
2022/07/13 09:12:20;;;;;;;1.10;0.80;;;30.90;95.70;;;;;;4952479;28;20204;-75
2022/07/13 09:15:06;;;;;;;12.37;1.00;;;31.40;96.80;;;;;;4953106;28;20490;-76
2022/07/13 09:17:35;;;;;;;1.03;0.83;;;32.40;95.20;;;;;;4952316;28;20423;-75
2022/07/13 09:20:22;;;;;;;0.90;0.70;;;33.00;94.90;;;;;;4953177;28;20416;-75
2022/07/13 09:22:58;;;;;;;3.00;0.80;;;33.80;94.90;;;;;;4951497;28;20980;-76
2022/07/13 09:25:37;;;;;;;1.33;0.80;;;34.50;94.10;;;;;;4952616;28;20515;-77
2022/07/13 09:28:06;;;;;;;2.17;0.70;;;35.10;92.40;;;;;;4952915;28;20436;-75
2022/07/13 09:30:34;;;;;;;1.70;0.80;;;35.60;90.70;;;;;;4952012;28;21169;-71
2022/07/13 09:33:00;;;;;;;2.30;0.60;;;36.10;87.80;;;;;;4951524;29;20467;-76
2022/07/13 09:35:46;;;;;;;0.70;0.70;;;36.00;85.80;;;;;;4952795;28;20455;-75
2022/07/13 09:38:31;;;;;;;0.97;0.60;;;35.00;73.30;;;;;;4952626;28;20400;-72
2022/07/13 09:41:19;;;;;;;0.90;0.80;;;34.70;78.40;;;;;;4951988;28;20440;-75
2022/07/13 09:47:05;;;;;;;1.23;0.70;;;35.30;75.30;;;;;;4952669;29;20507;-76
2022/07/13 09:49:42;;;;;;;0.60;0.50;;;35.90;75.70;;;;;;4951025;28;20428;-72
2022/07/13 09:52:09;;;;;;;0.77;0.50;;;36.40;67.30;;;;;;4951012;28;20502;-75
2022/07/13 09:54:38;;;;;;;0.60;0.60;;;36.10;66.50;;;;;;4952433;28;20500;-76
2022/07/13 09:57:07;;;;;;;0.80;0.50;;;36.60;70.50;;;;;;4952372;28;20541;-75
2022/07/13 09:59:35;;;;;;;0.60;0.60;;;37.00;69.20;;;;;;4952284;28;20416;-75
2022/07/13 10:02:02;;;;;;;2.37;0.50;;;37.10;67.10;;;;;;4951223;28;20604;-77
2022/07/13 10:04:29;;;;;;;0.70;0.60;;;37.60;67.70;;;;;;4952812;28;20419;-75
2022/07/13 10:06:55;;;;;;;1.47;0.60;;;37.50;62.80;;;;;;4951604;28;20416;-76
2022/07/13 10:09:24;;;;;;;0.57;0.57;;;37.20;61.00;;;;;;4952402;28;20423;-76
2022/07/13 10:11:50;;;;;;;0.50;0.50;;;37.40;59.60;;;;;;4951277;28;20196;-75
2022/07/13 10:14:18;;;;;;;1.10;0.70;;;36.90;58.20;;;;;;4952179;28;20473;-75
2022/07/13 10:16:44;;;;;;;0.50;0.50;;;36.30;58.60;;;;;;4953068;28;20176;-76
2022/07/13 10:19:11;;;;;;;1.17;0.60;;;35.90;55.90;;;;;;4955949;28;20416;-75
2022/07/13 10:22:00;;;;;;;3.50;0.70;;;36.10;57.20;;;;;;4955087;28;20455;-75
2022/07/13 10:24:25;;;;;;;1.27;0.60;;;36.50;59.70;;;;;;4956436;28;20434;-76
2022/07/13 10:26:51;;;;;;;1.10;0.50;;;37.00;58.90;;;;;;4955597;28;20416;-73
2022/07/13 10:29:17;;;;;;;2.03;0.80;;;37.30;57.70;;;;;;4956305;28;20548;-75
2022/07/13 10:31:43;;;;;;;3.80;0.70;;;36.60;58.10;;;;;;4954490;28;20722;-75
2022/07/13 10:34:13;;;;;;;1.63;0.50;;;36.70;57.20;;;;;;4955940;28;20204;-75
2022/07/13 10:36:51;;;;;;;1.20;0.50;;;36.30;56.00;;;;;;4955766;28;20491;-75
2022/07/13 10:39:22;;;;;;;0.70;0.60;;;36.10;56.30;;;;;;4955899;28;20423;-75
2022/07/13 10:42:00;;;;;;;0.80;0.50;;;35.90;55.90;;;;;;4954304;28;20464;-75
2022/07/13 10:44:30;;;;;;;1.33;0.50;;;36.20;56.50;;;;;;4955507;28;20411;-76
2022/07/13 10:46:56;;;;;;;0.60;0.50;;;36.60;55.90;;;;;;4942739;28;20512;-76
2022/07/13 10:49:31;;;;;;;0.50;0.50;;;36.40;54.50;;;;;;4936634;29;21006;-74
2022/07/13 10:52:16;;;;;;;0.67;0.50;;;36.70;56.10;;;;;;4947046;28;20200;-75
2022/07/13 10:55:06;;;;;;;1.13;0.50;;;37.00;54.60;;;;;;4955430;29;20980;-75
2022/07/13 10:57:34;;;;;;;0.60;0.60;;;36.20;53.60;;;;;;4955782;28;20427;-76
2022/07/13 11:02:55;;;;;;;2.00;0.60;;;35.50;52.30;;;;;;4954362;28;20487;-76
2022/07/13 11:05:25;;;;;;;4.00;0.67;;;35.00;51.40;;;;;;4955843;28;20408;-78
2022/07/13 11:07:52;;;;;;;0.80;0.60;;;34.90;52.80;;;;;;4955249;28;20412;-74
2022/07/13 11:10:22;;;;;;;2.60;0.60;;;35.00;53.30;;;;;;4955633;28;20416;-77
2022/07/13 11:13:09;;;;;;;0.60;0.60;;;35.50;53.80;;;;;;4953551;28;20480;-77
2022/07/13 11:15:50;;;;;;;1.13;0.67;;;36.10;54.10;;;;;;4955132;28;20474;-76
2022/07/13 11:18:24;;;;;;;0.70;0.60;;;35.40;53.10;;;;;;4956088;28;21001;-77
2022/07/13 11:21:09;;;;;;;3.40;0.50;;;35.00;54.20;;;;;;4955648;28;20428;-77
2022/07/13 11:26:52;;;;;;;0.70;0.70;;;34.50;55.30;;;;;;4955519;29;20475;-77
2022/07/13 11:29:41;;;;;;;0.50;0.50;;;34.70;55.20;;;;;;4954579;28;20416;-77
2022/07/13 11:32:06;;;;;;;1.03;0.60;;;35.10;55.20;;;;;;4953999;28;20456;-77
2022/07/13 11:34:32;;;;;;;0.53;0.53;;;34.90;53.70;;;;;;4954347;28;20416;-75
2022/07/13 11:37:03;;;;;;;1.00;0.50;;;35.30;53.90;;;;;;4955198;28;20215;-77
2022/07/13 11:39:33;;;;;;;1.53;0.50;;;35.20;54.50;;;;;;4955377;28;20598;-77
2022/07/13 11:42:01;;;;;;;0.70;0.60;;;35.40;53.60;;;;;;4954035;28;21008;-77
2022/07/13 11:44:31;;;;;;;2.00;0.80;;;35.50;53.20;;;;;;4954871;28;20420;-77
2022/07/13 11:46:58;;;;;;;0.70;0.60;;;35.80;54.20;;;;;;4955205;28;20419;-76
2022/07/13 11:49:25;;;;;;;1.03;0.70;;;35.40;53.00;;;;;;4954896;28;21034;-76
2022/07/13 11:51:51;;;;;;;1.23;0.70;;;35.10;53.60;;;;;;4954311;28;21497;-76
2022/07/13 11:54:19;;;;;;;2.70;0.70;;;35.20;54.00;;;;;;4954220;28;20534;-76
2022/07/13 11:56:50;;;;;;;1.37;1.23;;;35.00;54.30;;;;;;4954551;28;20792;-74
2022/07/13 11:59:41;;;;;;;1.17;0.63;;;35.00;54.30;;;;;;4953159;28;21016;-76
2022/07/13 12:02:08;;;;;;;0.70;0.60;;;34.80;53.50;;;;;;4953588;28;20867;-77
2022/07/13 12:04:44;;;;;;;1.60;0.60;;;34.80;53.80;;;;;;4954560;28;20436;-76
2022/07/13 12:07:21;;;;;;;0.50;0.50;;;34.80;53.30;;;;;;4954171;28;20757;-76
2022/07/13 12:09:57;;;;;;;0.97;0.60;;;34.80;54.20;;;;;;4954771;28;20532;-76
2022/07/13 12:12:26;;;;;;;1.83;0.50;;;34.70;53.00;;;;;;4953453;28;20906;-76
2022/07/13 12:14:54;;;;;;;0.97;0.50;;;34.30;52.40;;;;;;4953940;28;20479;-74
2022/07/13 12:17:21;;;;;;;0.70;0.70;;;33.80;52.00;;;;;;4953084;28;20486;-76
2022/07/13 12:19:46;;;;;;;1.93;0.60;;;33.80;53.80;;;;;;4954112;28;20444;-75
2022/07/13 12:22:12;;;;;;;0.50;0.50;;;34.00;53.00;;;;;;4947396;28;20498;-74
2022/07/13 12:24:44;;;;;;;1.17;1.10;;;34.10;52.00;;;;;;4954329;28;20539;-76
2022/07/13 12:27:25;;;;;;;2.30;0.60;;;34.00;52.20;;;;;;4954160;28;20181;-76
2022/07/13 12:29:52;;;;;;;0.83;0.50;;;33.90;52.00;;;;;;4954377;28;20854;-71
2022/07/13 12:32:18;;;;;;;0.70;0.60;;;33.60;53.00;;;;;;4953171;28;20519;-74
2022/07/13 12:34:54;;;;;;;1.90;0.50;;;33.50;53.10;;;;;;4954508;28;20416;-75
2022/07/13 12:37:37;;;;;;;0.73;0.40;;;33.40;52.80;;;;;;4954524;28;20412;-74
2022/07/13 12:40:04;;;;;;;1.47;0.60;;;33.40;53.90;;;;;;4954024;28;20433;-75
2022/07/13 12:42:31;;;;;;;1.03;0.60;;;33.40;53.70;;;;;;4953443;28;20495;-75
2022/07/13 12:44:57;;;;;;;2.30;0.60;;;33.50;53.30;;;;;;4924522;28;20998;-73
2022/07/13 12:47:26;;;;;;;0.50;0.40;;;33.70;54.90;;;;;;4952288;28;20495;-75
2022/07/13 12:49:51;;;;;;;2.30;0.60;;;33.80;52.90;;;;;;4952209;28;20523;-73
2022/07/13 12:52:19;;;;;;;1.20;0.50;;;33.80;52.40;;;;;;4947392;28;20476;-74
2022/07/13 12:54:48;;;;;;;1.37;0.50;;;33.80;51.30;;;;;;4950991;28;20658;-73
2022/07/13 12:57:19;;;;;;;6.50;1.40;;;33.50;51.80;;;;;;4951364;28;20468;-73
2022/07/13 13:00:00;;;;;;;0.80;0.57;;;33.50;52.70;;;;;;4951835;28;20548;-73
2022/07/13 13:02:28;;;;;;;0.60;0.50;;;33.50;52.60;;;;;;4950642;28;20584;-72
2022/07/13 13:04:54;;;;;;;1.93;0.70;;;33.70;51.70;;;;;;4951427;28;20523;-72
2022/07/13 13:07:19;;;;;;;0.60;0.47;;;33.90;53.00;;;;;;4951848;28;20944;-73
2022/07/13 13:09:45;;;;;;;1.50;0.50;;;34.30;51.80;;;;;;4951871;28;20236;-72
2022/07/13 13:12:10;;;;;;;1.77;0.50;;;34.50;51.00;;;;;;4951211;28;20229;-72
2022/07/13 13:14:36;;;;;;;0.50;0.50;;;34.60;51.30;;;;;;4951187;28;20582;-73
2022/07/13 13:17:02;;;;;;;1.53;0.40;;;34.50;50.70;;;;;;4951614;28;20554;-72
2022/07/13 13:19:27;;;;;;;0.57;0.50;;;34.40;50.60;;;;;;4951184;28;20236;-72
2022/07/13 13:21:53;;;;;;;6.90;1.33;;;34.20;50.00;;;;;;4928205;28;20259;-75
2022/07/13 13:24:19;;;;;;;0.90;0.50;;;34.30;51.00;;;;;;4919063;28;20692;-73
2022/07/13 13:26:45;;;;;;;1.13;0.60;;;34.40;51.60;;;;;;4950779;28;20221;-72
2022/07/13 13:31:56;;;;;;;0.83;0.53;;;34.50;51.50;;;;;;4951826;28;20230;-73
2022/07/13 13:34:22;;;;;;;0.60;0.53;;;34.30;50.10;;;;;;4952448;28;20961;-72
2022/07/13 13:36:48;;;;;;;2.30;0.70;;;34.20;51.70;;;;;;4952179;28;20650;-72
2022/07/13 13:39:15;;;;;;;1.53;1.03;;;33.90;50.70;;;;;;4951897;28;20183;-73
2022/07/13 13:41:40;;;;;;;2.93;0.60;;;33.70;51.10;;;;;;4951190;28;20451;-73
2022/07/13 13:44:06;;;;;;;0.50;0.50;;;33.50;50.60;;;;;;4952353;28;20438;-72
2022/07/13 13:46:31;;;;;;;0.50;0.50;;;33.30;51.30;;;;;;4952410;28;20215;-71
2022/07/13 13:48:57;;;;;;;0.50;0.50;;;33.10;51.80;;;;;;4952132;28;20619;-72
2022/07/13 13:51:22;;;;;;;4.67;0.70;;;33.00;51.40;;;;;;4948386;28;20209;-72
2022/07/13 13:53:48;;;;;;;2.30;0.50;;;33.00;51.80;;;;;;4952047;28;20212;-73
2022/07/13 13:56:13;;;;;;;0.93;0.50;;;32.80;52.30;;;;;;4952282;28;20191;-72
2022/07/13 13:58:39;;;;;;;0.80;0.50;;;32.80;52.10;;;;;;4951865;28;20547;-73
2022/07/13 14:01:05;;;;;;;1.63;0.50;;;32.60;52.10;;;;;;4950724;28;20460;-70
2022/07/13 14:03:32;;;;;;;1.00;0.70;;;32.50;52.50;;;;;;4951680;28;20267;-72
2022/07/13 14:05:58;;;;;;;1.60;0.60;;;32.40;52.70;;;;;;4891340;28;20899;-76
2022/07/13 14:08:24;;;;;;;1.63;0.60;;;32.10;52.70;;;;;;4835008;28;20898;-73
2022/07/13 14:10:50;;;;;;;0.60;0.50;;;31.70;52.50;;;;;;4832691;28;20928;-72
2022/07/13 14:13:16;;;;;;;1.80;0.50;;;31.70;52.60;;;;;;4835980;28;20516;-74
2022/07/13 14:16:13;;;;;;;1.10;0.60;;;31.60;52.80;;;;;;4834631;28;20496;-74
2022/07/13 14:18:39;;;;;;;1.57;0.67;;;31.50;52.90;;;;;;4891899;28;20475;-72
2022/07/13 14:21:05;;;;;;;1.17;0.50;;;31.50;53.30;;;;;;4890652;28;20456;-72
2022/07/13 14:23:30;;;;;;;2.17;0.70;;;31.50;53.70;;;;;;4895839;28;20554;-73
2022/07/13 14:25:56;;;;;;;0.60;0.50;;;31.50;53.40;;;;;;4894988;28;20717;-73
2022/07/13 14:28:22;;;;;;;0.63;0.53;;;31.40;53.60;;;;;;4885418;28;20216;-72
2022/07/13 14:30:48;;;;;;;2.40;0.50;;;31.30;53.70;;;;;;4887962;28;20796;-72
2022/07/13 14:33:14;;;;;;;0.50;0.50;;;31.30;53.20;;;;;;4886712;28;20216;-72
2022/07/13 14:35:49;;;;;;;0.87;0.80;;;31.20;53.70;;;;;;4886032;28;20480;-72